Time;durP1;ratioP1;P1;durP2;ratioP2;P2;SDS_P1;SDS_P2;PMS_P1;PMS_P2;Temp;Humidity;BMP_temperature;BMP_pressure;BME280_temperature;BME280_humidity;BME280_pressure;Samples;Min_cycle;Max_cycle;Signal;HPM_P1;HPM_P2
2022/04/23 00:00:09;;;;;;;28.92;20.45;;;9.60;99.90;;;;;;5036585;28;20112;-78
2022/04/23 00:02:35;;;;;;;28.40;20.98;;;9.60;99.90;;;;;;5055440;28;20035;-77
2022/04/23 00:05:01;;;;;;;27.17;19.17;;;9.60;99.90;;;;;;5055879;28;20056;-76
2022/04/23 00:07:26;;;;;;;27.13;19.88;;;9.70;99.90;;;;;;5055792;28;20033;-79
2022/04/23 00:09:52;;;;;;;26.27;19.75;;;9.60;99.90;;;;;;5055107;28;20106;-77
2022/04/23 00:12:19;;;;;;;26.75;19.90;;;9.60;99.90;;;;;;5055622;28;20090;-76
2022/04/23 00:14:45;;;;;;;25.15;19.73;;;9.70;99.90;;;;;;5056080;28;20056;-79
2022/04/23 00:17:10;;;;;;;26.65;19.92;;;9.70;99.90;;;;;;5056514;28;20013;-78
2022/04/23 00:19:36;;;;;;;24.00;19.15;;;9.80;99.90;;;;;;5037286;28;20028;-77
2022/04/23 00:22:02;;;;;;;29.23;20.77;;;9.80;99.90;;;;;;5056052;28;20033;-77
2022/04/23 00:24:27;;;;;;;25.90;20.20;;;9.90;99.90;;;;;;5049011;28;20028;-77
2022/04/23 00:26:53;;;;;;;27.90;20.60;;;9.90;99.90;;;;;;5067640;28;20039;-78
2022/04/23 00:29:18;;;;;;;26.58;20.23;;;9.80;99.90;;;;;;5065216;28;20036;-79
2022/04/23 00:31:44;;;;;;;30.25;21.77;;;9.70;99.90;;;;;;5037758;28;20102;-76
2022/04/23 00:34:09;;;;;;;30.98;22.08;;;9.80;99.90;;;;;;5037333;28;20033;-78
2022/04/23 00:36:35;;;;;;;32.03;23.35;;;9.70;99.90;;;;;;5056435;28;20021;-76
2022/04/23 00:39:00;;;;;;;34.15;24.55;;;9.70;99.90;;;;;;5056086;28;20088;-76
2022/04/23 00:41:45;;;;;;;34.38;25.50;;;9.70;99.90;;;;;;5055291;28;20029;-77
2022/04/23 00:44:11;;;;;;;37.42;25.42;;;9.70;99.90;;;;;;5055583;28;20032;-79
2022/04/23 00:46:37;;;;;;;37.42;27.15;;;9.60;99.90;;;;;;5037605;28;20037;-77
2022/04/23 00:49:03;;;;;;;35.80;27.23;;;9.70;99.90;;;;;;5034460;28;20034;-77
2022/04/23 00:51:30;;;;;;;35.72;27.73;;;9.70;99.90;;;;;;5034878;28;20480;-79
2022/04/23 00:53:56;;;;;;;39.88;27.67;;;9.60;99.90;;;;;;5035985;28;20029;-77
2022/04/23 00:56:25;;;;;;;39.45;28.48;;;9.60;99.90;;;;;;5035743;28;20017;-76
2022/04/23 00:58:51;;;;;;;38.88;28.60;;;9.70;99.90;;;;;;5017882;28;20029;-76
2022/04/23 01:01:19;;;;;;;40.08;28.63;;;9.60;99.90;;;;;;5016846;28;20040;-77
2022/04/23 01:03:45;;;;;;;40.97;28.08;;;9.60;99.90;;;;;;5034317;28;20034;-77
2022/04/23 01:06:11;;;;;;;39.53;28.80;;;9.60;99.90;;;;;;5035068;28;20113;-77
2022/04/23 01:08:37;;;;;;;36.40;27.52;;;9.60;99.90;;;;;;5017378;28;20048;-79
2022/04/23 01:11:03;;;;;;;39.55;29.90;;;9.50;99.90;;;;;;5017667;28;20041;-76
2022/04/23 01:13:28;;;;;;;42.78;29.98;;;9.60;99.90;;;;;;5017794;28;20033;-77
2022/04/23 01:16:03;;;;;;;40.47;31.23;;;9.60;99.90;;;;;;5035190;28;20026;-77
2022/04/23 01:18:29;;;;;;;37.03;27.88;;;9.60;99.90;;;;;;5017426;28;20051;-75
2022/04/23 01:20:56;;;;;;;43.03;30.73;;;9.60;99.90;;;;;;5016709;28;20017;-78
2022/04/23 01:23:22;;;;;;;42.83;29.85;;;9.50;99.90;;;;;;5035985;28;20021;-77
2022/04/23 01:25:53;;;;;;;39.78;28.90;;;9.40;99.90;;;;;;5016427;28;20025;-78
2022/04/23 01:28:21;;;;;;;46.30;30.25;;;9.40;99.90;;;;;;5034080;28;20025;-78
2022/04/23 01:30:49;;;;;;;41.25;29.33;;;9.40;99.90;;;;;;5037341;28;20086;-75
2022/04/23 01:33:14;;;;;;;44.17;30.05;;;9.50;99.90;;;;;;5019020;28;20083;-77
2022/04/23 01:35:40;;;;;;;46.45;30.55;;;9.40;99.90;;;;;;5036398;28;20026;-78
2022/04/23 01:38:05;;;;;;;41.75;29.38;;;9.40;99.90;;;;;;5036866;28;20105;-77
2022/04/23 01:40:31;;;;;;;42.22;28.83;;;9.40;99.90;;;;;;5036437;28;20076;-78
2022/04/23 01:42:56;;;;;;;43.22;29.85;;;9.40;99.90;;;;;;5035639;28;20045;-78
2022/04/23 01:45:22;;;;;;;45.28;30.23;;;9.50;99.90;;;;;;5046865;28;20481;-77
2022/04/23 01:47:47;;;;;;;42.13;29.15;;;9.40;99.90;;;;;;5059144;28;20052;-78
2022/04/23 01:50:13;;;;;;;42.55;29.27;;;9.40;99.90;;;;;;5041561;28;20037;-76
2022/04/23 01:52:39;;;;;;;42.30;28.67;;;9.40;99.90;;;;;;5059057;28;20029;-79
2022/04/23 01:55:05;;;;;;;42.85;28.88;;;9.40;99.90;;;;;;5038776;28;20017;-77
2022/04/23 01:57:30;;;;;;;41.10;29.33;;;9.40;99.90;;;;;;5056587;28;20485;-80
2022/04/23 01:59:56;;;;;;;39.65;28.67;;;9.40;99.90;;;;;;5057054;28;20044;-77
2022/04/23 02:02:22;;;;;;;40.47;28.48;;;9.40;99.90;;;;;;5058756;28;20499;-80
2022/04/23 02:04:47;;;;;;;38.78;29.10;;;9.40;99.90;;;;;;5039964;28;20116;-76
2022/04/23 02:07:13;;;;;;;41.40;29.23;;;9.40;99.90;;;;;;5040868;28;20064;-78
2022/04/23 02:09:39;;;;;;;39.05;28.67;;;9.40;99.90;;;;;;5040863;28;20036;-77
2022/04/23 02:12:05;;;;;;;41.38;29.42;;;9.40;99.90;;;;;;5041305;28;20040;-77
2022/04/23 02:14:30;;;;;;;40.63;28.17;;;9.40;99.90;;;;;;5058302;28;20044;-78
2022/04/23 02:16:56;;;;;;;41.55;29.38;;;9.50;99.90;;;;;;5058137;28;20281;-79
2022/04/23 02:19:22;;;;;;;40.25;28.85;;;9.50;99.90;;;;;;5058097;28;20036;-76
2022/04/23 02:21:47;;;;;;;43.25;29.05;;;9.50;99.90;;;;;;5041025;28;20021;-78
2022/04/23 02:24:13;;;;;;;39.63;28.00;;;9.50;99.90;;;;;;5041031;28;20036;-76
2022/04/23 02:26:39;;;;;;;37.03;27.45;;;9.60;99.90;;;;;;5040227;28;20048;-75
2022/04/23 02:29:04;;;;;;;43.65;29.08;;;9.60;99.90;;;;;;5057219;28;20051;-79
2022/04/23 02:31:30;;;;;;;36.55;27.15;;;9.70;99.90;;;;;;5057484;28;20025;-77
2022/04/23 02:33:57;;;;;;;40.40;29.00;;;9.70;99.90;;;;;;5057593;28;20044;-75
2022/04/23 02:36:23;;;;;;;39.13;27.42;;;9.60;99.90;;;;;;5044822;22;20040;-84
2022/04/23 02:38:51;;;;;;;39.67;26.90;;;9.60;99.90;;;;;;5036969;28;20108;-86
2022/04/23 02:41:17;;;;;;;37.85;27.75;;;9.50;99.90;;;;;;5036971;28;20036;-84
2022/04/23 02:43:43;;;;;;;38.67;28.58;;;9.50;99.90;;;;;;5037413;28;20029;-84
2022/04/23 02:46:09;;;;;;;38.60;29.10;;;9.50;99.90;;;;;;5051870;28;20031;-84
2022/04/23 02:48:38;;;;;;;38.28;27.10;;;9.50;99.90;;;;;;5056873;28;20036;-84
2022/04/23 02:51:03;;;;;;;39.83;28.52;;;9.50;99.90;;;;;;5069071;22;20064;-78
2022/04/23 02:53:29;;;;;;;38.28;28.25;;;9.50;99.90;;;;;;5057897;28;20516;-77
2022/04/23 02:55:56;;;;;;;40.22;28.88;;;9.60;99.90;;;;;;5057185;28;20036;-78
2022/04/23 02:58:25;;;;;;;37.90;26.92;;;9.50;99.90;;;;;;5056484;28;20017;-77
2022/04/23 03:00:52;;;;;;;36.70;26.92;;;9.50;99.90;;;;;;5039476;28;20142;-77
2022/04/23 03:03:19;;;;;;;38.45;28.27;;;9.50;99.90;;;;;;5057378;28;20504;-78
2022/04/23 03:05:45;;;;;;;39.08;27.98;;;9.50;99.90;;;;;;5056804;28;20492;-77
2022/04/23 03:08:12;;;;;;;39.15;27.13;;;9.50;99.90;;;;;;5039513;28;20043;-76
2022/04/23 03:10:41;;;;;;;38.17;27.15;;;9.60;99.90;;;;;;5056203;28;20021;-76
2022/04/23 03:13:08;;;;;;;36.97;28.38;;;9.60;99.90;;;;;;5057510;28;20029;-78
2022/04/23 03:15:34;;;;;;;42.78;29.38;;;9.60;99.90;;;;;;5057197;28;20021;-78
2022/04/23 03:18:05;;;;;;;36.80;28.10;;;9.60;99.90;;;;;;5056599;28;20061;-79
2022/04/23 03:20:32;;;;;;;36.00;27.23;;;9.60;99.90;;;;;;5056872;28;20082;-77
2022/04/23 03:22:57;;;;;;;38.03;28.60;;;9.60;99.90;;;;;;5057457;28;20439;-77
2022/04/23 03:25:23;;;;;;;36.78;28.60;;;9.70;99.90;;;;;;5056538;28;20025;-77
2022/04/23 03:27:48;;;;;;;39.08;28.25;;;9.70;99.90;;;;;;5055311;28;20079;-75
2022/04/23 03:30:14;;;;;;;42.15;28.40;;;9.80;99.90;;;;;;5056248;28;20021;-79
2022/04/23 03:32:41;;;;;;;36.78;27.35;;;9.80;99.90;;;;;;5056678;28;20029;-77
2022/04/23 03:35:08;;;;;;;37.47;27.35;;;9.90;99.90;;;;;;5056150;28;20021;-77
2022/04/23 03:37:34;;;;;;;35.20;26.88;;;9.90;99.90;;;;;;5055482;28;20025;-79
2022/04/23 03:40:00;;;;;;;39.53;27.50;;;10.00;99.90;;;;;;5055188;28;20496;-78
2022/04/23 03:42:26;;;;;;;35.95;27.10;;;10.10;99.90;;;;;;5055514;28;20033;-80
2022/04/23 03:44:51;;;;;;;36.25;27.98;;;10.10;99.90;;;;;;5041458;28;20024;-79
2022/04/23 03:47:17;;;;;;;36.05;28.00;;;10.20;99.90;;;;;;5056991;28;20025;-79
2022/04/23 03:49:42;;;;;;;37.05;27.30;;;10.20;99.90;;;;;;5057165;28;20484;-77
2022/04/23 03:52:10;;;;;;;34.20;26.58;;;10.20;99.90;;;;;;5075654;28;20369;-79
2022/04/23 03:54:36;;;;;;;35.38;27.27;;;10.40;99.90;;;;;;5075957;28;20047;-77
2022/04/23 03:57:01;;;;;;;37.35;27.90;;;10.40;99.90;;;;;;5074606;28;20025;-77
2022/04/23 03:59:29;;;;;;;38.10;27.92;;;10.50;99.90;;;;;;5073900;28;20021;-77
2022/04/23 04:01:55;;;;;;;35.70;27.13;;;10.50;99.90;;;;;;5073796;28;20027;-79
2022/04/23 04:04:21;;;;;;;36.65;28.08;;;10.50;99.90;;;;;;5073777;28;20028;-79
2022/04/23 04:06:46;;;;;;;36.88;27.58;;;10.50;99.90;;;;;;5056930;28;20024;-79
2022/04/23 04:09:12;;;;;;;36.00;28.25;;;10.50;99.90;;;;;;5075872;28;20032;-79
2022/04/23 04:14:22;;;;;;;33.63;26.65;;;10.70;99.90;;;;;;5076545;28;20447;-79
2022/04/23 04:16:48;;;;;;;36.92;27.60;;;10.70;99.90;;;;;;5075373;28;20025;-76
2022/04/23 04:19:14;;;;;;;39.42;27.40;;;10.70;99.90;;;;;;5057068;28;20105;-77
2022/04/23 04:21:43;;;;;;;33.90;26.10;;;10.70;99.90;;;;;;5076194;28;20033;-78
2022/04/23 04:24:16;;;;;;;31.92;26.60;;;10.70;99.90;;;;;;5057364;28;20024;-79
2022/04/23 04:26:43;;;;;;;37.88;27.38;;;10.70;99.90;;;;;;5058059;28;20020;-78
2022/04/23 04:29:10;;;;;;;37.80;26.67;;;10.70;99.90;;;;;;5057525;28;20399;-77
2022/04/23 04:31:49;;;;;;;36.00;27.65;;;10.70;99.90;;;;;;5074501;28;20020;-79
2022/04/23 04:34:17;;;;;;;34.22;26.83;;;10.70;99.90;;;;;;5058178;28;20062;-76
2022/04/23 04:36:43;;;;;;;37.70;28.77;;;10.60;99.90;;;;;;5057934;28;20024;-77
2022/04/23 04:39:09;;;;;;;35.10;26.67;;;10.70;99.90;;;;;;5075266;28;20078;-78
2022/04/23 04:41:35;;;;;;;36.47;26.95;;;10.60;99.90;;;;;;5077950;28;20028;-78
2022/04/23 04:44:02;;;;;;;35.60;27.52;;;10.60;99.90;;;;;;5088120;28;20025;-77
2022/04/23 04:46:27;;;;;;;39.60;29.33;;;10.50;99.90;;;;;;5067940;28;20033;-79
2022/04/23 04:48:53;;;;;;;37.42;29.58;;;10.50;99.90;;;;;;5055964;28;20036;-77
2022/04/23 04:51:18;;;;;;;39.20;29.00;;;10.40;99.90;;;;;;5055794;28;20112;-77
2022/04/23 04:53:44;;;;;;;37.22;28.73;;;10.40;99.90;;;;;;5056320;28;20036;-76
2022/04/23 04:56:10;;;;;;;42.60;29.58;;;10.30;99.90;;;;;;5053488;28;20079;-75
2022/04/23 04:58:36;;;;;;;37.35;29.05;;;10.30;99.90;;;;;;5036466;28;20024;-76
2022/04/23 05:01:02;;;;;;;41.55;29.25;;;10.20;99.90;;;;;;5054497;28;20024;-76
2022/04/23 05:03:28;;;;;;;41.60;31.38;;;10.20;99.90;;;;;;5055362;28;20021;-76
2022/04/23 05:05:53;;;;;;;40.17;28.67;;;10.20;99.90;;;;;;5037497;28;20029;-77
2022/04/23 05:08:19;;;;;;;37.97;28.05;;;10.20;99.90;;;;;;5058047;28;20048;-78
2022/04/23 05:10:45;;;;;;;39.38;29.65;;;10.30;99.90;;;;;;5057887;28;20025;-77
2022/04/23 05:13:10;;;;;;;40.88;30.80;;;10.30;99.90;;;;;;5055668;28;20465;-76
2022/04/23 05:15:37;;;;;;;41.70;30.45;;;10.40;99.90;;;;;;5055033;28;20146;-78
2022/04/23 05:18:03;;;;;;;41.78;30.27;;;10.40;99.90;;;;;;5056522;28;20021;-77
2022/04/23 05:20:29;;;;;;;39.83;29.27;;;10.50;99.90;;;;;;5037657;28;20076;-78
2022/04/23 05:22:54;;;;;;;39.60;29.73;;;10.60;99.90;;;;;;5055888;28;20388;-75
2022/04/23 05:25:20;;;;;;;39.65;29.23;;;10.60;99.90;;;;;;5054022;28;20025;-78
2022/04/23 05:27:45;;;;;;;39.30;28.83;;;10.70;99.90;;;;;;5057610;28;20328;-78
2022/04/23 05:30:11;;;;;;;39.17;30.77;;;10.80;99.90;;;;;;5037933;28;20036;-78
2022/04/23 05:32:37;;;;;;;42.25;30.55;;;10.80;99.90;;;;;;5055127;28;20021;-76
2022/04/23 05:35:02;;;;;;;38.55;28.70;;;11.00;99.90;;;;;;5055506;28;20025;-76
2022/04/23 05:37:28;;;;;;;40.33;29.75;;;11.20;99.90;;;;;;5054810;28;20051;-77
2022/04/23 05:39:53;;;;;;;36.60;28.17;;;11.30;99.90;;;;;;5036458;28;20044;-75
2022/04/23 05:42:19;;;;;;;36.55;28.98;;;11.50;99.90;;;;;;5054276;28;20028;-77
2022/04/23 05:44:44;;;;;;;37.58;29.00;;;11.60;99.90;;;;;;5057966;28;20471;-79
2022/04/23 05:47:10;;;;;;;38.85;29.02;;;11.70;99.90;;;;;;5056055;28;20052;-78
2022/04/23 05:49:37;;;;;;;40.00;29.15;;;11.80;99.90;;;;;;5073844;28;20036;-75
2022/04/23 05:52:03;;;;;;;37.50;29.00;;;11.80;99.90;;;;;;5074250;28;20017;-78
2022/04/23 05:54:29;;;;;;;35.90;28.23;;;11.70;99.90;;;;;;5074118;28;20065;-78
2022/04/23 05:56:55;;;;;;;36.40;29.38;;;11.70;99.90;;;;;;5074093;28;20495;-78
2022/04/23 05:59:21;;;;;;;37.88;28.60;;;11.80;99.90;;;;;;5074484;28;20032;-77
2022/04/23 06:01:46;;;;;;;40.42;30.58;;;11.80;99.90;;;;;;5074340;28;20054;-77
2022/04/23 06:04:12;;;;;;;35.70;28.13;;;11.80;99.90;;;;;;5074695;28;20024;-75
2022/04/23 06:06:37;;;;;;;38.42;30.30;;;12.00;99.90;;;;;;5054581;28;20056;-77
2022/04/23 06:09:03;;;;;;;38.67;29.13;;;12.10;99.90;;;;;;5055098;28;20499;-76
2022/04/23 06:11:28;;;;;;;35.50;27.88;;;12.30;99.90;;;;;;5072167;28;20036;-79
2022/04/23 06:13:54;;;;;;;35.63;28.30;;;12.40;99.90;;;;;;5072818;28;20094;-77
2022/04/23 06:16:19;;;;;;;35.47;29.13;;;12.40;99.90;;;;;;5054997;28;20427;-77
2022/04/23 06:18:45;;;;;;;37.63;29.00;;;12.60;99.90;;;;;;5054706;28;20048;-78
2022/04/23 06:21:11;;;;;;;40.88;31.85;;;12.70;99.90;;;;;;5074445;28;20016;-77
2022/04/23 06:23:37;;;;;;;41.33;30.75;;;12.60;99.90;;;;;;5055477;28;20028;-75
2022/04/23 06:26:03;;;;;;;39.17;30.20;;;12.50;99.90;;;;;;5055999;28;20062;-75
2022/04/23 06:28:28;;;;;;;40.20;29.60;;;12.60;99.90;;;;;;5073632;28;20115;-77
2022/04/23 06:30:54;;;;;;;37.88;28.80;;;12.70;99.90;;;;;;5056166;28;20035;-80
2022/04/23 06:33:20;;;;;;;36.60;29.70;;;12.80;99.90;;;;;;5078507;28;20132;-77
2022/04/23 06:35:45;;;;;;;37.95;28.52;;;13.10;99.90;;;;;;5058697;28;20434;-77
2022/04/23 06:38:11;;;;;;;37.38;29.42;;;13.00;99.90;;;;;;5076571;28;20074;-77
2022/04/23 06:40:37;;;;;;;39.10;30.10;;;13.10;99.90;;;;;;5077444;28;20049;-77
2022/04/23 06:43:02;;;;;;;37.90;28.63;;;13.10;99.90;;;;;;5078020;28;20484;-78
2022/04/23 06:45:28;;;;;;;37.55;29.95;;;13.20;99.90;;;;;;5066717;28;20063;-79
2022/04/23 06:48:06;;;;;;;38.70;29.48;;;13.20;99.90;;;;;;5057005;28;20028;-78
2022/04/23 06:50:33;;;;;;;38.70;29.90;;;13.20;99.90;;;;;;5055992;28;20115;-77
2022/04/23 06:52:59;;;;;;;38.70;30.40;;;13.30;99.90;;;;;;5056913;28;20025;-76
2022/04/23 06:55:25;;;;;;;40.00;30.25;;;13.50;99.90;;;;;;5057402;28;20044;-76
2022/04/23 06:57:51;;;;;;;40.20;30.20;;;13.70;99.90;;;;;;5057656;28;20473;-78
2022/04/23 07:00:17;;;;;;;38.33;28.80;;;14.10;99.90;;;;;;5056110;28;20096;-76
2022/04/23 07:02:42;;;;;;;36.47;29.92;;;14.00;99.90;;;;;;5057257;28;20033;-76
2022/04/23 07:05:08;;;;;;;36.92;30.15;;;13.90;99.90;;;;;;5058076;28;20090;-78
2022/04/23 07:07:34;;;;;;;36.40;29.25;;;13.90;99.90;;;;;;5057260;28;20083;-76
2022/04/23 07:10:00;;;;;;;38.92;29.73;;;14.10;99.90;;;;;;5038266;28;20024;-75
2022/04/23 07:12:27;;;;;;;38.00;31.23;;;14.30;99.90;;;;;;5057704;28;20030;-78
2022/04/23 07:14:52;;;;;;;37.85;29.95;;;14.40;99.90;;;;;;5055366;28;20076;-78
2022/04/23 07:17:25;;;;;;;38.20;29.83;;;14.40;99.90;;;;;;5039584;28;20063;-77
2022/04/23 07:19:53;;;;;;;39.28;30.25;;;14.70;99.90;;;;;;5039009;28;20021;-76
2022/04/23 07:22:20;;;;;;;40.78;29.25;;;15.00;99.90;;;;;;5056552;28;20037;-75
2022/04/23 07:24:48;;;;;;;40.17;29.40;;;15.10;99.90;;;;;;5038477;28;20039;-78
2022/04/23 07:27:13;;;;;;;37.35;29.55;;;15.20;99.90;;;;;;5057185;28;20021;-75
2022/04/23 07:29:39;;;;;;;37.63;29.65;;;14.90;99.90;;;;;;5039686;28;20031;-75
2022/04/23 07:32:05;;;;;;;38.38;30.38;;;14.90;99.90;;;;;;5057060;28;20033;-78
2022/04/23 07:37:34;;;;;;;37.17;29.25;;;15.40;99.90;;;;;;5057439;28;20035;-79
2022/04/23 07:40:10;;;;;;;37.00;29.70;;;15.40;99.90;;;;;;5056928;28;20021;-77
2022/04/23 07:42:36;;;;;;;39.00;30.42;;;15.50;99.90;;;;;;5057181;28;20037;-77
2022/04/23 07:45:03;;;;;;;34.92;27.85;;;15.80;99.90;;;;;;5061017;28;20449;-79
2022/04/23 07:47:28;;;;;;;33.15;28.02;;;16.00;99.90;;;;;;5075104;28;20036;-77
2022/04/23 07:49:54;;;;;;;37.30;29.08;;;16.10;99.90;;;;;;5057806;28;20037;-77
2022/04/23 07:52:20;;;;;;;35.78;28.63;;;16.30;99.90;;;;;;5076783;28;20024;-78
2022/04/23 07:54:46;;;;;;;35.47;28.63;;;16.00;99.90;;;;;;5076651;28;20032;-76
2022/04/23 07:57:12;;;;;;;35.35;28.52;;;16.10;99.90;;;;;;5076332;28;20028;-77
2022/04/23 07:59:41;;;;;;;38.33;29.67;;;16.10;99.90;;;;;;5058046;28;20104;-76
2022/04/23 08:02:08;;;;;;;34.92;28.20;;;16.20;99.90;;;;;;5057981;28;20025;-77
2022/04/23 08:04:34;;;;;;;36.85;28.05;;;16.20;99.90;;;;;;5075926;28;20116;-76
2022/04/23 08:07:00;;;;;;;38.67;29.27;;;16.60;99.90;;;;;;5076721;28;20106;-77
2022/04/23 08:09:25;;;;;;;36.38;28.33;;;16.60;99.90;;;;;;5058400;28;20028;-77
2022/04/23 08:11:51;;;;;;;38.30;30.27;;;16.10;99.90;;;;;;5059534;28;20035;-77
2022/04/23 08:14:17;;;;;;;36.40;27.92;;;16.30;99.90;;;;;;5076685;28;20052;-77
2022/04/23 08:16:42;;;;;;;34.90;28.60;;;16.50;99.90;;;;;;5076179;28;20024;-78
2022/04/23 08:19:09;;;;;;;37.05;28.52;;;16.70;99.90;;;;;;5057544;28;20023;-78
2022/04/23 08:21:34;;;;;;;37.90;28.38;;;17.00;99.90;;;;;;5058484;28;20455;-77
2022/04/23 08:24:00;;;;;;;35.85;28.20;;;17.10;99.90;;;;;;5076352;28;20032;-78
2022/04/23 08:26:26;;;;;;;34.80;28.90;;;17.50;99.90;;;;;;5075101;28;20036;-78
2022/04/23 08:31:36;;;;;;;36.33;29.10;;;17.40;99.90;;;;;;5076029;28;20055;-79
2022/04/23 08:34:03;;;;;;;38.17;28.83;;;17.50;99.90;;;;;;5057079;28;20024;-78
2022/04/23 08:36:29;;;;;;;32.65;26.92;;;17.40;99.90;;;;;;5057402;28;20040;-78
2022/04/23 08:38:58;;;;;;;33.50;28.95;;;17.60;99.90;;;;;;5074369;28;20032;-77
2022/04/23 08:41:29;;;;;;;34.25;26.75;;;17.90;99.90;;;;;;5075302;28;20024;-75
2022/04/23 08:44:05;;;;;;;34.83;29.00;;;18.40;99.90;;;;;;5075575;28;20024;-78
2022/04/23 08:46:38;;;;;;;34.45;28.35;;;18.40;98.50;;;;;;5057334;28;20036;-80
2022/04/23 08:49:13;;;;;;;36.65;28.67;;;18.40;97.60;;;;;;5055204;28;20084;-77
2022/04/23 08:51:40;;;;;;;39.28;27.38;;;18.20;95.70;;;;;;5036413;28;20071;-77
2022/04/23 08:54:09;;;;;;;37.58;26.30;;;18.30;98.00;;;;;;5053164;28;20021;-76
2022/04/23 08:56:36;;;;;;;35.45;28.75;;;18.60;94.00;;;;;;5053799;28;20133;-76
2022/04/23 08:59:03;;;;;;;37.40;28.23;;;18.00;95.20;;;;;;5053244;28;20021;-78
2022/04/23 09:01:33;;;;;;;34.88;28.55;;;18.00;95.30;;;;;;5056327;28;20029;-77
2022/04/23 09:03:59;;;;;;;35.30;28.95;;;17.70;96.90;;;;;;5054890;28;20032;-77
2022/04/23 09:06:31;;;;;;;37.38;27.90;;;17.70;96.80;;;;;;5043668;28;20040;-76
2022/04/23 09:09:11;;;;;;;32.35;26.42;;;18.00;96.00;;;;;;5069586;28;20033;-77
2022/04/23 09:11:39;;;;;;;33.33;27.13;;;18.50;95.40;;;;;;5068968;28;20021;-75
2022/04/23 09:14:06;;;;;;;35.83;26.33;;;18.60;93.20;;;;;;5056943;28;20501;-75
2022/04/23 09:25:10;;;;;;;31.45;26.05;;;18.60;91.60;;;;;;5054024;28;20039;-74
2022/04/23 09:27:36;;;;;;;32.00;26.25;;;18.30;91.80;;;;;;5052930;28;20032;-76
2022/04/23 09:30:06;;;;;;;32.63;25.83;;;18.50;90.80;;;;;;5052339;28;20476;-77
2022/04/23 09:32:32;;;;;;;31.38;25.40;;;18.70;90.30;;;;;;5054259;28;20029;-77
2022/04/23 09:35:11;;;;;;;33.65;25.98;;;18.60;91.10;;;;;;5054773;28;20099;-78
2022/04/23 09:40:27;;;;;;;33.72;25.70;;;18.90;90.00;;;;;;5053036;28;20027;-77
2022/04/23 09:42:58;;;;;;;30.38;25.08;;;19.20;86.30;;;;;;5053081;28;20391;-75
2022/04/23 09:45:28;;;;;;;32.17;26.10;;;19.10;87.00;;;;;;5061191;28;20496;-76
2022/04/23 09:48:03;;;;;;;34.55;26.38;;;19.50;84.60;;;;;;5054071;28;20028;-75
2022/04/23 09:50:35;;;;;;;36.08;26.77;;;18.90;85.50;;;;;;5054622;28;20029;-78
2022/04/23 09:53:14;;;;;;;34.92;26.83;;;18.30;87.20;;;;;;5055306;28;20060;-76
2022/04/23 09:55:40;;;;;;;35.63;25.20;;;17.60;90.80;;;;;;5054213;28;20039;-76
2022/04/23 09:58:07;;;;;;;32.42;24.90;;;17.20;91.70;;;;;;5072891;28;20100;-75
2022/04/23 10:00:38;;;;;;;29.90;23.73;;;17.60;92.10;;;;;;5055675;28;20031;-76
2022/04/23 10:03:08;;;;;;;30.30;23.30;;;18.50;90.60;;;;;;5054825;28;20060;-77
2022/04/23 10:05:44;;;;;;;27.45;22.35;;;19.10;86.90;;;;;;5073431;28;20024;-77
2022/04/23 10:08:12;;;;;;;28.45;22.30;;;19.30;84.70;;;;;;5076696;28;20391;-77
2022/04/23 10:10:55;;;;;;;25.63;21.25;;;19.20;82.70;;;;;;5059281;28;20408;-77
2022/04/23 10:13:25;;;;;;;27.23;21.60;;;19.20;83.50;;;;;;5075738;28;20056;-74
2022/04/23 10:15:53;;;;;;;27.65;22.63;;;19.50;81.10;;;;;;5076131;28;20021;-77
2022/04/23 10:18:20;;;;;;;27.30;21.48;;;19.60;79.40;;;;;;5058093;28;20337;-74
2022/04/23 10:21:00;;;;;;;26.60;20.25;;;19.50;80.20;;;;;;5075913;28;20036;-76
2022/04/23 10:23:32;;;;;;;25.70;21.58;;;19.10;79.90;;;;;;5075982;28;20108;-77
2022/04/23 10:26:07;;;;;;;27.17;22.05;;;19.00;78.50;;;;;;5075576;28;20025;-76
2022/04/23 10:28:33;;;;;;;29.40;21.75;;;18.60;81.50;;;;;;5075759;28;20435;-76
2022/04/23 10:31:15;;;;;;;29.90;23.35;;;18.90;80.40;;;;;;5075911;28;20356;-76
2022/04/23 10:33:54;;;;;;;29.50;22.98;;;18.80;79.80;;;;;;5075827;28;20021;-75
2022/04/23 10:36:22;;;;;;;31.58;24.25;;;18.50;81.90;;;;;;5057402;28;20451;-77
2022/04/23 10:38:52;;;;;;;31.65;24.95;;;18.10;83.80;;;;;;5076368;28;20056;-76
2022/04/23 10:41:20;;;;;;;29.73;22.42;;;17.80;86.10;;;;;;5077692;28;20483;-75
2022/04/23 10:44:06;;;;;;;30.25;23.50;;;17.70;86.80;;;;;;5077449;28;20101;-76
2022/04/23 10:46:37;;;;;;;32.53;24.63;;;18.10;86.30;;;;;;5041299;28;20120;-77
2022/04/23 10:49:20;;;;;;;31.80;25.23;;;18.40;84.00;;;;;;5057713;28;20021;-78
2022/04/23 10:51:49;;;;;;;30.60;24.67;;;18.60;82.30;;;;;;5057730;28;20122;-78
2022/04/23 10:54:16;;;;;;;32.05;24.10;;;18.50;81.60;;;;;;5057678;28;20017;-76
2022/04/23 10:56:43;;;;;;;31.17;23.63;;;18.20;83.60;;;;;;5057615;28;20028;-79
2022/04/23 10:59:42;;;;;;;31.38;25.05;;;17.90;83.80;;;;;;5055735;28;20435;-77
2022/04/23 11:02:21;;;;;;;30.13;23.35;;;17.60;84.20;;;;;;5057430;28;20027;-76
2022/04/23 11:13:31;;;;;;;26.45;20.75;;;20.90;69.80;;;;;;5057978;28;20087;-78
2022/04/23 11:16:17;;;;;;;27.30;20.30;;;20.40;70.40;;;;;;5056601;28;20082;-76
2022/04/23 11:18:44;;;;;;;22.75;17.08;;;20.00;71.70;;;;;;5056873;28;20070;-75
2022/04/23 11:21:14;;;;;;;22.92;17.23;;;19.90;69.90;;;;;;5057112;28;20514;-79
2022/04/23 11:23:42;;;;;;;24.83;19.35;;;20.30;72.20;;;;;;5041250;28;20387;-77
2022/04/23 11:26:11;;;;;;;26.02;18.38;;;20.30;70.00;;;;;;5041234;28;20028;-80
2022/04/23 11:28:39;;;;;;;18.77;15.27;;;20.00;71.20;;;;;;5043256;28;20080;-78
2022/04/23 11:31:13;;;;;;;22.25;16.70;;;20.10;69.90;;;;;;5062926;28;20005;-75
2022/04/23 11:33:55;;;;;;;21.05;16.55;;;20.50;69.60;;;;;;5063594;28;20024;-79
2022/04/23 11:36:29;;;;;;;19.70;16.33;;;20.40;66.20;;;;;;5058357;28;20380;-78
2022/04/23 11:38:56;;;;;;;21.80;16.60;;;20.60;66.40;;;;;;5055585;28;20036;-77
2022/04/23 11:41:48;;;;;;;21.40;16.73;;;21.00;66.30;;;;;;5055780;28;20530;-77
2022/04/23 11:44:18;;;;;;;21.40;15.88;;;20.80;64.40;;;;;;5055935;28;20017;-76
2022/04/23 11:46:47;;;;;;;18.92;15.57;;;20.50;64.60;;;;;;5077162;28;20436;-76
2022/04/23 11:49:30;;;;;;;18.00;15.32;;;20.40;65.20;;;;;;5076098;28;20052;-76
2022/04/23 11:52:14;;;;;;;23.52;16.83;;;20.60;64.00;;;;;;5077854;28;20111;-78
2022/04/23 11:54:44;;;;;;;22.95;15.68;;;20.20;64.50;;;;;;5058965;28;20020;-75
2022/04/23 11:57:11;;;;;;;22.85;16.67;;;20.10;65.30;;;;;;5078044;28;20486;-77
2022/04/23 11:59:37;;;;;;;20.92;16.55;;;19.90;65.10;;;;;;5077725;28;20056;-77
2022/04/23 12:02:05;;;;;;;19.63;15.00;;;19.30;67.30;;;;;;5077666;28;20088;-79
2022/04/23 12:04:45;;;;;;;19.70;15.25;;;19.30;68.40;;;;;;5076959;28;20084;-78
2022/04/23 12:07:11;;;;;;;18.65;15.23;;;19.20;68.00;;;;;;5077602;28;20028;-77
2022/04/23 12:09:51;;;;;;;22.13;15.65;;;19.50;67.70;;;;;;5057887;28;20020;-79
2022/04/23 12:12:22;;;;;;;19.95;14.68;;;19.70;65.20;;;;;;5058024;28;20036;-79
2022/04/23 12:14:50;;;;;;;17.27;13.43;;;19.90;65.40;;;;;;5077539;28;20012;-77
2022/04/23 12:17:48;;;;;;;20.85;15.35;;;19.80;65.20;;;;;;5076398;28;20032;-79
2022/04/23 12:20:16;;;;;;;17.30;13.27;;;20.30;63.80;;;;;;5076473;28;20024;-74
2022/04/23 12:22:59;;;;;;;19.70;13.40;;;20.60;62.90;;;;;;5059644;28;20397;-76
2022/04/23 12:25:27;;;;;;;18.02;14.18;;;21.10;62.20;;;;;;5077946;28;20097;-76
2022/04/23 12:27:59;;;;;;;16.90;13.63;;;21.20;60.90;;;;;;5060634;28;20446;-75
2022/04/23 12:42:11;;;;;;;21.95;17.48;;;18.90;67.50;;;;;;5077614;28;20089;-77
2022/04/23 12:44:46;;;;;;;21.65;16.80;;;18.30;69.70;;;;;;5074956;28;20017;-77
2022/04/23 12:47:13;;;;;;;22.67;16.97;;;17.90;71.20;;;;;;5056878;28;20032;-75
2022/04/23 12:49:56;;;;;;;23.20;17.08;;;17.80;71.20;;;;;;5054967;28;20048;-76
2022/04/23 12:52:27;;;;;;;22.55;16.55;;;17.90;72.50;;;;;;5055459;28;20025;-78
2022/04/23 12:55:14;;;;;;;22.20;16.45;;;18.00;70.80;;;;;;5055372;28;20025;-74
2022/04/23 12:57:48;;;;;;;22.33;16.52;;;18.20;72.80;;;;;;5056330;28;20082;-77
2022/04/23 13:00:16;;;;;;;22.25;17.13;;;18.10;70.60;;;;;;5037877;28;20063;-77
2022/04/23 13:02:45;;;;;;;25.52;17.40;;;17.80;73.10;;;;;;5055355;28;20124;-77
2022/04/23 13:05:11;;;;;;;24.75;16.38;;;17.50;75.00;;;;;;5056171;28;20039;-77
2022/04/23 13:10:22;;;;;;;22.58;16.45;;;17.20;74.60;;;;;;5054917;28;20040;-78
2022/04/23 13:12:48;;;;;;;20.23;15.70;;;17.00;74.90;;;;;;5036136;28;20045;-77
2022/04/23 13:15:15;;;;;;;21.98;15.93;;;17.00;75.90;;;;;;5054222;28;20695;-77
2022/04/23 13:17:42;;;;;;;22.65;15.80;;;17.00;75.60;;;;;;5035757;28;20076;-77